Terminal Aerodrome Forecast
Issued by NWS Wilmington, OH

Current Version | Previous Version | Graphics & Text | Print | Product List | Glossary On
Versions: 1 2 3 4 5 6 7 8 9 10 11 12 13 14 15 16 17 18 19 20 21 22 23 24 25
000
FTUS41 KILN 172339
TAFCVG
TAF
KCVG 172339Z 1800/1906 20010KT P6SM VCSH SCT035 BKN100
     FM180100 22010KT P6SM SCT040 BKN080
     FM180700 24004KT 5SM BR SCT015
     FM181300 26008KT P6SM SCT025 SCT150
     FM190400 VRB03KT P6SM SKC=

USA.gov is the U.S. government's official web portal to all federal, state and local government web resources and services.